Time;durP1;ratioP1;P1;durP2;ratioP2;P2;SDS_P1;SDS_P2;PMS_P1;PMS_P2;Temp;Humidity;BMP_temperature;BMP_pressure;BME280_temperature;BME280_humidity;BME280_pressure;Samples;Min_cycle;Max_cycle;Signal;HPM_P1;HPM_P2
2022/07/07 00:00:34;;;;;;;6.68;6.10;;;;;;;17.76;100.00;96828.47;5064783;28;20068;-47
2022/07/07 00:03:03;;;;;;;5.95;5.53;;;;;;;17.68;100.00;96826.66;5063051;28;20071;-49
2022/07/07 00:05:31;;;;;;;6.63;5.80;;;;;;;17.71;100.00;96817.47;5066596;28;20471;-47
2022/07/07 00:08:00;;;;;;;6.50;5.95;;;;;;;17.71;100.00;96828.13;5065256;28;20682;-48
2022/07/07 00:10:28;;;;;;;7.45;6.75;;;;;;;17.66;100.00;96826.03;5060373;28;20099;-49
2022/07/07 00:12:57;;;;;;;7.30;6.80;;;;;;;17.69;100.00;96823.00;5061075;28;20067;-52
2022/07/07 00:15:25;;;;;;;8.57;7.43;;;;;;;17.59;100.00;96827.75;5065885;28;20095;-48
2022/07/07 00:17:55;;;;;;;8.07;6.75;;;;;;;17.54;100.00;96828.25;5065968;28;20497;-48
2022/07/07 00:20:24;;;;;;;6.53;5.88;;;;;;;17.54;100.00;96825.59;5066668;28;20072;-48
2022/07/07 00:22:52;;;;;;;8.57;6.88;;;;;;;17.42;100.00;96827.06;5056161;28;20478;-49
2022/07/07 00:25:20;;;;;;;6.60;5.95;;;;;;;17.45;100.00;96823.19;5066984;28;20538;-50
2022/07/07 00:27:49;;;;;;;5.55;5.07;;;;;;;17.36;100.00;96821.59;5062908;28;20071;-48
2022/07/07 00:30:17;;;;;;;7.75;6.43;;;;;;;17.09;100.00;96827.25;5066451;28;20056;-47
2022/07/07 00:32:46;;;;;;;8.40;6.20;;;;;;;17.08;100.00;96822.94;5061134;28;20075;-50
2022/07/07 00:35:15;;;;;;;14.50;6.22;;;;;;;17.06;100.00;96824.94;5061076;28;20067;-50
2022/07/07 00:37:44;;;;;;;7.93;7.28;;;;;;;17.00;100.00;96831.00;5065264;28;20091;-48
2022/07/07 00:40:12;;;;;;;7.85;6.88;;;;;;;17.05;100.00;96830.47;5060822;28;20099;-51
2022/07/07 00:42:41;;;;;;;7.55;7.05;;;;;;;16.96;100.00;96829.66;5063539;28;20060;-48
2022/07/07 00:45:10;;;;;;;7.38;6.68;;;;;;;16.72;100.00;96833.25;5062390;28;20056;-45
2022/07/07 00:47:40;;;;;;;6.85;6.03;;;;;;;16.63;100.00;96820.19;5063996;28;20064;-48
2022/07/07 00:50:09;;;;;;;8.45;7.65;;;;;;;16.52;100.00;96824.06;5063990;28;20087;-51
2022/07/07 00:52:39;;;;;;;7.57;6.97;;;;;;;16.44;100.00;96822.22;5065487;28;20530;-51
2022/07/07 00:55:09;;;;;;;7.07;6.40;;;;;;;16.46;100.00;96819.41;5062182;28;20064;-47
2022/07/07 00:57:37;;;;;;;9.20;7.70;;;;;;;16.51;100.00;96825.88;5059862;28;20072;-49
2022/07/07 01:00:09;;;;;;;7.50;6.78;;;;;;;16.48;100.00;96826.25;5064780;28;20463;-54
2022/07/07 01:02:38;;;;;;;9.35;8.57;;;;;;;16.50;100.00;96831.38;5065295;28;20131;-49
2022/07/07 01:05:09;;;;;;;7.45;5.72;;;;;;;16.49;100.00;96832.38;5064815;28;20127;-51
2022/07/07 01:07:39;;;;;;;6.65;6.05;;;;;;;16.46;100.00;96827.41;5066250;28;20083;-49
2022/07/07 01:10:08;;;;;;;10.20;7.57;;;;;;;16.44;100.00;96827.56;5066037;28;20056;-49
2022/07/07 01:12:38;;;;;;;5.88;5.15;;;;;;;16.39;100.00;96829.91;5059368;28;20065;-48
2022/07/07 01:15:09;;;;;;;10.15;6.00;;;;;;;16.33;100.00;96823.44;5065751;28;20542;-48
2022/07/07 01:17:38;;;;;;;6.95;5.60;;;;;;;16.25;100.00;96820.00;5062376;28;20522;-48
2022/07/07 01:20:08;;;;;;;9.23;7.30;;;;;;;16.18;100.00;96827.00;5064163;28;20068;-50
2022/07/07 01:22:39;;;;;;;7.55;7.05;;;;;;;16.19;100.00;96821.50;5064535;28;20080;-46
2022/07/07 01:25:09;;;;;;;;;;;;;;;16.16;100.00;96829.00;5067374;28;20074;-47
2022/07/07 01:27:37;;;;;;;5.97;5.47;;;;;;;16.13;100.00;96828.31;5078931;28;19962;-46
2022/07/07 01:30:07;;;;;;;6.38;5.78;;;;;;;16.06;100.00;96823.84;5085593;28;20151;-48
2022/07/07 01:32:35;;;;;;;7.13;6.53;;;;;;;16.00;100.00;96827.19;5079091;28;20060;-49
2022/07/07 01:35:05;;;;;;;5.85;5.35;;;;;;;15.92;100.00;96824.56;5085687;28;20068;-48
2022/07/07 01:37:34;;;;;;;7.88;6.85;;;;;;;15.87;100.00;96828.56;5084895;28;20079;-54
2022/07/07 01:40:04;;;;;;;6.30;5.87;;;;;;;15.90;100.00;96825.56;5084376;28;20079;-46
2022/07/07 01:42:33;;;;;;;7.45;6.70;;;;;;;15.86;100.00;96818.94;5079447;28;20478;-46
2022/07/07 01:45:02;;;;;;;9.10;5.28;;;;;;;15.85;100.00;96819.06;5081872;28;20067;-48
2022/07/07 01:47:31;;;;;;;7.35;6.65;;;;;;;15.74;100.00;96814.13;5081218;28;20074;-47
2022/07/07 01:49:59;;;;;;;7.43;6.72;;;;;;;15.76;100.00;96823.59;5086434;28;20083;-49
2022/07/07 01:52:27;;;;;;;7.63;6.93;;;;;;;15.57;100.00;96821.25;5082279;28;20083;-46
2022/07/07 01:54:56;;;;;;;7.47;6.82;;;;;;;15.56;100.00;96820.41;5084150;28;20067;-52
2022/07/07 01:57:24;;;;;;;6.55;5.95;;;;;;;15.61;100.00;96817.25;5085431;28;20071;-50
2022/07/07 01:59:54;;;;;;;8.15;7.47;;;;;;;15.56;100.00;96823.06;5085966;28;20061;-47
2022/07/07 02:02:22;;;;;;;7.68;7.05;;;;;;;15.46;100.00;96821.59;5080308;28;20533;-48
2022/07/07 02:04:51;;;;;;;6.97;6.10;;;;;;;15.47;100.00;96832.03;5081334;28;20099;-48
2022/07/07 02:07:19;;;;;;;8.68;7.88;;;;;;;15.48;100.00;96828.38;5087061;28;20076;-47
2022/07/07 02:09:48;;;;;;;6.28;5.78;;;;;;;15.40;100.00;96829.22;5083947;28;20064;-48
2022/07/07 02:12:16;;;;;;;6.47;5.88;;;;;;;15.19;100.00;96829.69;5081062;28;20056;-46
2022/07/07 02:14:45;;;;;;;7.05;6.45;;;;;;;15.20;100.00;96826.03;5084212;28;20076;-46
2022/07/07 02:17:14;;;;;;;6.70;6.03;;;;;;;15.22;100.00;96827.72;5085401;28;20569;-50
2022/07/07 02:19:43;;;;;;;6.40;5.90;;;;;;;14.96;100.00;96828.66;5084047;28;20080;-50
2022/07/07 02:22:11;;;;;;;7.20;6.15;;;;;;;14.97;100.00;96827.69;5080675;28;20208;-48
2022/07/07 02:24:40;;;;;;;9.32;6.57;;;;;;;14.94;100.00;96828.00;5081797;28;20085;-49
2022/07/07 02:27:08;;;;;;;7.20;6.50;;;;;;;14.89;100.00;96832.94;5085998;28;20067;-47
2022/07/07 02:29:36;;;;;;;6.82;6.22;;;;;;;14.92;100.00;96825.50;5078187;28;20090;-48
2022/07/07 02:32:05;;;;;;;7.75;6.68;;;;;;;14.88;100.00;96832.13;5080442;28;20079;-47
2022/07/07 02:34:35;;;;;;;6.85;6.25;;;;;;;14.85;100.00;96831.63;5086677;28;20454;-47
2022/07/07 02:37:03;;;;;;;7.67;6.00;;;;;;;14.89;100.00;96832.94;5080496;28;20059;-48
2022/07/07 02:39:32;;;;;;;7.45;6.88;;;;;;;14.92;100.00;96827.31;5079527;28;20497;-47
2022/07/07 02:42:00;;;;;;;8.32;6.22;;;;;;;14.82;100.00;96829.28;5081292;28;20074;-51
2022/07/07 02:44:28;;;;;;;6.95;6.32;;;;;;;14.89;100.00;96828.47;5085136;28;20079;-49
2022/07/07 02:46:57;;;;;;;6.88;6.28;;;;;;;14.91;100.00;96825.66;5080249;28;20091;-51
2022/07/07 02:49:25;;;;;;;9.02;7.15;;;;;;;14.85;100.00;96821.00;5073955;28;20107;-47
2022/07/07 02:51:55;;;;;;;8.05;7.35;;;;;;;14.87;100.00;96825.16;5073964;28;20070;-51
2022/07/07 02:54:23;;;;;;;7.87;7.17;;;;;;;14.88;100.00;96823.34;5079998;28;20550;-49
2022/07/07 02:56:52;;;;;;;8.65;7.80;;;;;;;14.87;100.00;96819.03;5074282;28;21055;-53
2022/07/07 02:59:20;;;;;;;9.43;7.22;;;;;;;14.86;100.00;96823.47;5076246;28;20182;-52
2022/07/07 03:01:48;;;;;;;7.80;7.00;;;;;;;14.91;100.00;96820.34;5080099;28;20075;-47
2022/07/07 03:04:17;;;;;;;6.53;5.82;;;;;;;14.83;100.00;96817.66;5075105;28;20079;-51
2022/07/07 03:06:45;;;;;;;8.65;7.20;;;;;;;14.89;100.00;96807.22;5082754;28;20113;-50
2022/07/07 03:09:16;;;;;;;6.93;6.32;;;;;;;14.88;100.00;96813.53;5074361;28;20060;-52
2022/07/07 03:11:44;;;;;;;8.00;7.28;;;;;;;14.98;100.00;96804.59;5075767;28;20067;-50
2022/07/07 03:14:12;;;;;;;7.60;6.90;;;;;;;15.01;100.00;96804.28;5079491;28;20063;-48
2022/07/07 03:16:41;;;;;;;6.50;5.78;;;;;;;15.07;100.00;96800.94;5080328;28;20106;-48
2022/07/07 03:19:09;;;;;;;6.90;6.20;;;;;;;15.07;100.00;96806.25;5079371;28;21348;-46
2022/07/07 03:21:37;;;;;;;7.65;6.95;;;;;;;15.21;100.00;96802.97;5078826;28;20465;-49
2022/07/07 03:24:06;;;;;;;6.43;5.93;;;;;;;15.19;100.00;96802.28;5076089;28;20068;-47
2022/07/07 03:26:36;;;;;;;6.88;6.28;;;;;;;15.25;100.00;96806.97;5080057;28;20053;-52
2022/07/07 03:29:04;;;;;;;8.32;6.97;;;;;;;15.27;100.00;96798.81;5076799;28;20640;-46
2022/07/07 03:31:33;;;;;;;6.95;6.32;;;;;;;15.29;100.00;96796.81;5086451;28;20086;-49
2022/07/07 03:34:01;;;;;;;6.90;6.15;;;;;;;15.34;100.00;96794.50;5084767;28;20064;-48
2022/07/07 03:36:30;;;;;;;7.78;6.95;;;;;;;15.36;100.00;96795.16;5077310;28;20499;-49
2022/07/07 03:38:58;;;;;;;7.35;6.75;;;;;;;15.33;100.00;96790.19;5079712;28;20075;-47
2022/07/07 03:41:27;;;;;;;8.38;7.68;;;;;;;15.44;100.00;96792.50;5079642;28;20082;-48
2022/07/07 03:43:56;;;;;;;6.60;6.00;;;;;;;15.42;100.00;96792.69;5083583;28;20087;-46
2022/07/07 03:46:25;;;;;;;10.35;6.93;;;;;;;15.36;100.00;96787.19;5085684;28;20083;-47
2022/07/07 03:48:53;;;;;;;10.23;7.13;;;;;;;15.55;100.00;96784.16;5085569;28;20067;-51
2022/07/07 03:51:22;;;;;;;6.95;6.25;;;;;;;15.47;100.00;96786.03;5081293;28;20075;-46
2022/07/07 03:53:50;;;;;;;8.13;7.32;;;;;;;15.49;100.00;96778.72;5074859;28;20189;-48
2022/07/07 03:56:19;;;;;;;9.82;9.02;;;;;;;15.49;100.00;96786.69;5080970;28;20067;-50
2022/07/07 03:58:47;;;;;;;7.75;7.07;;;;;;;15.48;100.00;96793.81;5083375;28;20076;-50
2022/07/07 04:01:17;;;;;;;8.73;7.85;;;;;;;15.61;100.00;96795.97;5082372;28;20076;-48
2022/07/07 04:03:46;;;;;;;7.55;6.95;;;;;;;15.65;100.00;96797.28;5085064;28;20035;-45
2022/07/07 04:06:15;;;;;;;7.28;6.57;;;;;;;15.71;100.00;96794.00;5084218;28;20036;-51
2022/07/07 04:08:43;;;;;;;7.88;7.05;;;;;;;15.88;100.00;96800.94;5076274;28;20087;-48
2022/07/07 04:11:11;;;;;;;7.13;6.63;;;;;;;16.02;100.00;96799.44;5093171;28;20071;-49
2022/07/07 04:13:40;;;;;;;8.23;6.70;;;;;;;16.04;100.00;96791.28;5086259;28;20453;-51
2022/07/07 04:16:08;;;;;;;8.88;7.63;;;;;;;16.08;100.00;96796.09;5087730;28;20052;-47
2022/07/07 04:18:38;;;;;;;9.40;8.57;;;;;;;16.23;100.00;96795.38;5085978;28;20068;-48
2022/07/07 04:21:07;;;;;;;7.47;6.57;;;;;;;16.17;100.00;96801.38;5083029;28;20083;-49
2022/07/07 04:23:36;;;;;;;7.22;6.50;;;;;;;16.25;100.00;96796.03;5081369;28;20087;-52
2022/07/07 04:26:05;;;;;;;7.93;7.32;;;;;;;16.38;100.00;96794.50;5086285;28;20083;-47
2022/07/07 04:28:33;;;;;;;11.35;10.25;;;;;;;16.43;100.00;96796.63;5090265;28;20080;-46
2022/07/07 04:31:01;;;;;;;10.38;7.47;;;;;;;16.30;100.00;96799.81;5090297;28;20086;-45
2022/07/07 04:33:30;;;;;;;10.23;6.93;;;;;;;16.36;100.00;96800.97;5090778;28;20071;-46
2022/07/07 04:35:59;;;;;;;7.80;7.15;;;;;;;16.49;100.00;96800.44;5090476;28;20322;-49
2022/07/07 04:38:28;;;;;;;9.35;5.47;;;;;;;16.37;100.00;96790.16;5090597;28;20533;-49
2022/07/07 04:40:56;;;;;;;7.97;7.18;;;;;;;16.44;100.00;96794.78;5085522;28;20281;-47
2022/07/07 04:43:25;;;;;;;8.55;6.97;;;;;;;16.45;100.00;96789.31;5088528;28;20475;-51
2022/07/07 04:45:53;;;;;;;8.80;7.20;;;;;;;16.31;100.00;96790.88;5090542;28;20083;-46
2022/07/07 04:48:22;;;;;;;7.32;6.45;;;;;;;16.48;100.00;96794.28;5090016;28;20134;-46
2022/07/07 04:50:50;;;;;;;9.20;6.43;;;;;;;16.44;100.00;96792.13;5089935;28;20083;-46
2022/07/07 04:53:20;;;;;;;7.50;6.70;;;;;;;16.49;100.00;96787.94;5089884;28;20754;-46
2022/07/07 04:55:49;;;;;;;7.35;6.78;;;;;;;16.26;100.00;96784.38;5081954;28;20522;-47
2022/07/07 04:58:17;;;;;;;7.40;6.60;;;;;;;16.44;100.00;96797.44;5089971;28;20537;-45
2022/07/07 05:00:45;;;;;;;7.45;6.78;;;;;;;16.28;100.00;96793.88;5089749;28;20075;-46
2022/07/07 05:03:13;;;;;;;7.13;6.45;;;;;;;16.26;100.00;96795.03;5089679;28;20087;-49
2022/07/07 05:05:42;;;;;;;9.52;7.75;;;;;;;16.48;100.00;96791.63;5089474;28;20070;-49
2022/07/07 05:08:10;;;;;;;7.78;6.32;;;;;;;16.26;100.00;96792.38;5083626;28;20459;-49
2022/07/07 05:10:40;;;;;;;10.80;9.85;;;;;;;16.43;100.00;96787.81;5089546;28;20079;-46
2022/07/07 05:13:08;;;;;;;7.57;6.30;;;;;;;16.53;100.00;96796.44;5089658;28;20091;-54
2022/07/07 05:15:37;;;;;;;9.13;7.93;;;;;;;16.77;100.00;96804.31;5089862;28;20493;-51
2022/07/07 05:18:05;;;;;;;7.03;6.40;;;;;;;16.50;100.00;96807.41;5095774;28;20172;-49
2022/07/07 05:20:33;;;;;;;8.93;8.13;;;;;;;16.71;100.00;96810.31;5093384;28;20094;-50
2022/07/07 05:23:02;;;;;;;7.28;6.55;;;;;;;16.85;100.00;96804.25;5085891;28;20079;-46
2022/07/07 05:25:30;;;;;;;8.65;6.97;;;;;;;16.71;100.00;96807.63;5086456;28;20075;-46
2022/07/07 05:28:00;;;;;;;7.35;6.63;;;;;;;16.79;100.00;96802.31;5089460;28;20106;-47
2022/07/07 05:30:29;;;;;;;8.40;7.70;;;;;;;17.08;100.00;96801.63;5082728;28;20087;-49
2022/07/07 05:32:57;;;;;;;6.97;5.95;;;;;;;16.99;100.00;96796.53;5082937;28;20086;-47
2022/07/07 05:35:25;;;;;;;8.05;6.35;;;;;;;17.25;100.00;96798.84;5082416;28;20082;-50
2022/07/07 05:37:54;;;;;;;8.38;7.10;;;;;;;17.17;100.00;96793.56;5089358;28;20094;-49
2022/07/07 05:40:22;;;;;;;7.20;6.40;;;;;;;17.18;100.00;96804.06;5088866;28;20079;-44
2022/07/07 05:42:50;;;;;;;6.75;5.97;;;;;;;17.26;100.00;96809.31;5089158;28;20534;-45
2022/07/07 05:45:23;;;;;;;7.50;6.07;;;;;;;17.34;100.00;96797.75;5089238;28;20075;-45
2022/07/07 05:47:51;;;;;;;8.52;7.80;;;;;;;17.18;100.00;96800.56;5089118;28;20084;-45
2022/07/07 05:50:20;;;;;;;7.30;6.07;;;;;;;17.17;100.00;96799.75;5087167;28;20466;-50
2022/07/07 05:52:48;;;;;;;7.20;6.60;;;;;;;17.29;100.00;96798.31;5089329;28;20091;-48
2022/07/07 05:55:16;;;;;;;8.27;7.57;;;;;;;17.16;100.00;96795.41;5083023;28;20537;-49
2022/07/07 05:57:45;;;;;;;6.55;6.00;;;;;;;17.48;100.00;96797.00;5088924;28;20040;-46
2022/07/07 06:00:14;;;;;;;7.93;7.30;;;;;;;17.48;100.00;96796.16;5088744;28;20083;-51
2022/07/07 06:02:44;;;;;;;7.88;7.18;;;;;;;17.63;100.00;96793.53;5089178;28;20091;-44
2022/07/07 06:05:12;;;;;;;9.77;8.95;;;;;;;17.42;100.00;96799.56;5087856;28;20098;-45
2022/07/07 06:07:41;;;;;;;6.07;5.45;;;;;;;17.58;100.00;96791.41;5088771;28;20083;-46
2022/07/07 06:10:10;;;;;;;8.52;7.72;;;;;;;17.38;100.00;96783.09;5088535;28;20098;-46
2022/07/07 06:12:38;;;;;;;10.35;6.25;;;;;;;17.79;100.00;96791.59;5089367;28;20088;-47
2022/07/07 06:15:07;;;;;;;9.13;8.43;;;;;;;17.76;100.00;96796.47;5101065;28;20094;-49
2022/07/07 06:17:36;;;;;;;9.23;8.43;;;;;;;17.65;100.00;96792.38;5087613;28;20091;-48
2022/07/07 06:20:26;;;;;;;8.43;7.70;;;;;;;17.50;100.00;96796.81;5087616;28;20079;-48
2022/07/07 06:22:54;;;;;;;9.25;7.13;;;;;;;17.68;100.00;96794.66;5088942;28;20534;-45
2022/07/07 06:25:23;;;;;;;8.05;7.35;;;;;;;17.62;100.00;96798.06;5088648;28;20147;-45
2022/07/07 06:27:51;;;;;;;9.15;8.32;;;;;;;17.55;100.00;96811.28;5088550;28;20095;-46
2022/07/07 06:30:20;;;;;;;10.55;6.63;;;;;;;17.74;100.00;96806.44;5088492;28;20522;-44
2022/07/07 06:32:48;;;;;;;7.00;6.25;;;;;;;17.31;100.00;96809.63;5085037;28;20072;-46
2022/07/07 06:35:19;;;;;;;7.43;6.93;;;;;;;17.49;100.00;96803.16;5092913;28;20076;-48
2022/07/07 06:37:49;;;;;;;7.32;6.57;;;;;;;17.63;100.00;96805.03;5086128;28;20080;-45
2022/07/07 06:40:18;;;;;;;7.22;6.38;;;;;;;17.71;100.00;96804.13;5092627;28;20094;-46
2022/07/07 06:42:46;;;;;;;10.80;7.57;;;;;;;18.12;100.00;96804.59;5092627;28;20088;-48
2022/07/07 06:45:14;;;;;;;7.72;6.90;;;;;;;18.14;100.00;96813.25;5092373;28;20083;-46
2022/07/07 06:47:43;;;;;;;7.55;6.85;;;;;;;18.33;100.00;96803.84;5087477;28;20318;-44
2022/07/07 06:50:11;;;;;;;9.00;6.88;;;;;;;18.44;100.00;96797.19;5092276;28;20082;-45
2022/07/07 06:52:39;;;;;;;7.43;6.72;;;;;;;18.54;100.00;96792.41;5092373;28;20093;-45
2022/07/07 06:55:10;;;;;;;11.60;10.60;;;;;;;18.40;100.00;96798.59;5087081;28;20537;-47
2022/07/07 06:57:39;;;;;;;7.63;7.13;;;;;;;18.50;100.00;96799.97;5092106;28;20079;-48
2022/07/07 07:00:10;;;;;;;8.27;7.55;;;;;;;18.73;100.00;96797.19;5091948;28;20541;-45
2022/07/07 07:02:43;;;;;;;9.10;8.32;;;;;;;18.63;100.00;96806.50;5091958;28;20075;-47
2022/07/07 07:05:12;;;;;;;8.30;7.57;;;;;;;18.85;100.00;96796.72;5092423;28;20435;-47
2022/07/07 07:07:40;;;;;;;9.15;8.45;;;;;;;18.62;100.00;96797.66;5092198;28;20091;-50
2022/07/07 07:10:11;;;;;;;6.97;6.38;;;;;;;18.73;100.00;96797.19;5090897;28;20060;-47
2022/07/07 07:12:39;;;;;;;;;;;;;;;18.93;100.00;96792.09;5094975;28;20064;-48
2022/07/07 07:15:08;;;;;;;8.75;8.05;;;;;;;18.98;100.00;96794.19;5088542;28;19960;-46
2022/07/07 07:17:37;;;;;;;7.28;6.72;;;;;;;19.41;100.00;96804.91;5091905;28;20072;-50
2022/07/07 07:20:06;;;;;;;7.45;6.75;;;;;;;18.87;100.00;96798.19;5092301;28;20102;-45
2022/07/07 07:22:39;;;;;;;7.80;7.18;;;;;;;18.90;100.00;96786.31;5091806;28;20619;-45
2022/07/07 07:25:10;;;;;;;7.85;7.10;;;;;;;18.65;100.00;96799.97;5090221;28;20072;-45
2022/07/07 07:27:38;;;;;;;8.05;6.40;;;;;;;18.96;100.00;96797.06;5091374;28;20099;-48
2022/07/07 07:30:07;;;;;;;8.85;7.22;;;;;;;19.42;100.00;96787.84;5090183;28;20075;-45
2022/07/07 07:32:36;;;;;;;8.90;8.13;;;;;;;19.61;100.00;96789.03;5091807;28;20102;-48
2022/07/07 07:35:04;;;;;;;9.40;8.60;;;;;;;19.26;100.00;96790.78;5091588;28;20099;-46
2022/07/07 07:37:33;;;;;;;8.10;7.38;;;;;;;19.18;100.00;96791.72;5091932;28;20084;-46
2022/07/07 07:40:02;;;;;;;7.88;7.10;;;;;;;19.28;100.00;96794.09;5091316;28;20084;-46
2022/07/07 07:42:31;;;;;;;7.25;6.70;;;;;;;19.31;100.00;96805.22;5089656;28;20084;-49
2022/07/07 07:45:12;;;;;;;10.88;7.05;;;;;;;19.31;100.00;96799.06;5090588;28;20110;-47
2022/07/07 07:47:42;;;;;;;8.63;7.72;;;;;;;19.60;100.00;96798.06;5088245;28;20083;-53
2022/07/07 07:50:13;;;;;;;10.75;9.38;;;;;;;20.05;100.00;96794.13;5091344;28;20083;-48
2022/07/07 07:52:42;;;;;;;8.02;7.32;;;;;;;20.12;100.00;96799.50;5090935;28;20084;-50
2022/07/07 07:55:12;;;;;;;10.48;9.52;;;;;;;20.25;100.00;96806.81;5086653;28;20084;-51
2022/07/07 07:57:42;;;;;;;9.95;9.20;;;;;;;20.41;100.00;96809.19;5090705;28;20588;-48
2022/07/07 08:00:12;;;;;;;7.28;6.68;;;;;;;20.82;100.00;96793.13;5090873;28;20060;-49
2022/07/07 08:02:41;;;;;;;9.00;7.75;;;;;;;20.65;100.00;96799.84;5091089;28;20078;-53
2022/07/07 08:05:11;;;;;;;7.30;6.57;;;;;;;20.71;100.00;96793.66;5090626;28;20083;-50
2022/07/07 08:07:40;;;;;;;11.38;7.15;;;;;;;21.14;100.00;96784.53;5095222;28;20090;-48
2022/07/07 08:10:09;;;;;;;10.27;9.30;;;;;;;21.00;100.00;96784.50;5090800;28;20094;-51
2022/07/07 08:12:38;;;;;;;8.23;7.60;;;;;;;20.42;100.00;96788.56;5088090;28;20890;-48
2022/07/07 08:15:09;;;;;;;8.98;8.27;;;;;;;20.88;100.00;96787.97;5090920;28;20092;-46
2022/07/07 08:17:38;;;;;;;9.45;8.63;;;;;;;21.04;100.00;96782.25;5088033;28;20071;-50
2022/07/07 08:20:07;;;;;;;9.95;8.23;;;;;;;20.84;100.00;96785.69;5090666;28;20140;-50
2022/07/07 08:22:36;;;;;;;8.73;8.02;;;;;;;20.81;100.00;96782.56;5090632;28;20540;-47
2022/07/07 08:25:05;;;;;;;8.15;7.55;;;;;;;20.98;100.00;96783.03;5090522;28;20071;-45
2022/07/07 08:27:33;;;;;;;8.50;7.88;;;;;;;20.92;100.00;96775.81;5090897;28;20086;-47
2022/07/07 08:30:01;;;;;;;8.43;7.55;;;;;;;20.58;100.00;96781.06;5090459;28;20084;-51
2022/07/07 08:32:31;;;;;;;8.85;8.20;;;;;;;21.16;100.00;96777.91;5090505;28;20087;-49
2022/07/07 08:35:00;;;;;;;9.68;8.55;;;;;;;21.47;100.00;96772.03;5090892;28;20091;-50
2022/07/07 08:37:28;;;;;;;9.95;8.43;;;;;;;21.87;100.00;96772.00;5090383;28;20095;-51
2022/07/07 08:39:57;;;;;;;9.13;8.32;;;;;;;21.47;100.00;96773.84;5085863;28;20540;-51
2022/07/07 08:42:25;;;;;;;7.43;6.78;;;;;;;21.93;100.00;96775.72;5090044;28;20079;-48
2022/07/07 08:44:54;;;;;;;9.30;8.52;;;;;;;21.48;100.00;96780.91;5090063;28;20059;-49
2022/07/07 08:47:22;;;;;;;9.13;8.40;;;;;;;21.44;100.00;96783.16;5090312;28;20658;-48
2022/07/07 08:49:52;;;;;;;12.13;8.82;;;;;;;21.64;100.00;96799.25;5090003;28;20158;-46
2022/07/07 08:52:21;;;;;;;9.15;8.45;;;;;;;21.12;100.00;96792.78;5087028;28;20068;-45
2022/07/07 08:54:50;;;;;;;9.60;8.88;;;;;;;21.67;100.00;96793.47;5085837;28;20525;-48
2022/07/07 08:57:19;;;;;;;8.93;8.13;;;;;;;22.28;100.00;96781.69;5089741;28;20494;-47
2022/07/07 08:59:47;;;;;;;8.73;8.13;;;;;;;22.16;100.00;96800.31;5083654;28;20068;-45
2022/07/07 09:02:16;;;;;;;10.55;9.77;;;;;;;21.99;100.00;96786.47;5083506;28;20095;-47
2022/07/07 09:04:45;;;;;;;10.55;9.68;;;;;;;21.41;100.00;96793.50;5099172;28;20095;-47
2022/07/07 09:07:15;;;;;;;8.63;7.95;;;;;;;21.44;100.00;96799.28;5089141;28;20577;-46
2022/07/07 09:09:44;;;;;;;;;;;;;;;21.85;100.00;96802.78;5090001;28;20052;-50
2022/07/07 09:12:14;;;;;;;7.75;7.15;;;;;;;21.80;100.00;96806.09;5089085;28;20267;-47
2022/07/07 09:14:44;;;;;;;9.02;8.32;;;;;;;21.39;100.00;96790.16;5090134;28;20076;-49
2022/07/07 09:17:19;;;;;;;9.27;8.63;;;;;;;21.32;100.00;96796.31;5089926;28;20081;-46
2022/07/07 09:19:59;;;;;;;9.18;8.52;;;;;;;21.36;100.00;96801.31;5090295;28;20087;-49
2022/07/07 09:22:50;;;;;;;8.95;8.15;;;;;;;20.92;100.00;96802.59;5087943;28;20078;-46
2022/07/07 09:25:26;;;;;;;9.65;8.05;;;;;;;20.49;100.00;96803.66;5088946;28;20442;-49
2022/07/07 09:27:58;;;;;;;7.72;7.03;;;;;;;20.60;100.00;96796.94;5089430;28;20083;-47
2022/07/07 09:30:38;;;;;;;9.50;8.80;;;;;;;20.81;100.00;96795.97;5089332;28;20098;-46
2022/07/07 09:33:08;;;;;;;8.88;8.27;;;;;;;20.46;100.00;96811.25;5089850;28;20168;-50
2022/07/07 09:38:28;;;;;;;8.27;7.60;;;;;;;20.39;100.00;96804.00;5089792;28;20079;-44
2022/07/07 09:40:59;;;;;;;6.70;6.05;;;;;;;20.93;100.00;96789.03;5083671;28;20079;-45
2022/07/07 09:43:30;;;;;;;9.77;9.07;;;;;;;21.32;100.00;96792.81;5089258;28;20102;-48
2022/07/07 09:46:13;;;;;;;8.60;7.80;;;;;;;21.40;100.00;96802.56;5089380;28;20095;-51
2022/07/07 09:48:45;;;;;;;10.57;9.68;;;;;;;21.58;100.00;96801.97;5088697;28;20067;-48
2022/07/07 09:51:22;;;;;;;9.10;8.30;;;;;;;21.63;100.00;96799.47;5088810;28;20570;-47
2022/07/07 09:54:00;;;;;;;8.07;6.75;;;;;;;21.42;100.00;96798.63;5087247;28;20529;-49
2022/07/07 09:56:30;;;;;;;9.50;8.80;;;;;;;21.12;100.00;96800.81;5086520;28;20106;-48
2022/07/07 09:59:00;;;;;;;9.00;8.27;;;;;;;20.89;100.00;96808.38;5092306;28;20501;-46
2022/07/07 10:05:02;;;;;;;10.30;9.60;;;;;;;20.75;100.00;96807.50;5085904;28;20097;-49
2022/07/07 10:07:32;;;;;;;8.02;7.38;;;;;;;20.76;100.00;96819.88;5088672;28;20072;-46
2022/07/07 10:10:04;;;;;;;9.48;8.88;;;;;;;20.45;100.00;96817.66;5088564;28;20083;-47
2022/07/07 10:12:33;;;;;;;8.13;7.43;;;;;;;20.44;100.00;96822.19;5089009;28;20070;-45
2022/07/07 10:15:04;;;;;;;8.68;6.63;;;;;;;20.08;100.00;96815.16;5088916;28;20351;-48
2022/07/07 10:17:33;;;;;;;9.13;8.43;;;;;;;19.77;100.00;96818.22;5085490;28;20446;-46
2022/07/07 10:20:01;;;;;;;8.85;7.43;;;;;;;20.08;100.00;96817.81;5088973;28;20074;-47
2022/07/07 10:22:29;;;;;;;8.85;8.25;;;;;;;20.11;100.00;96828.16;5089210;28;20068;-47
2022/07/07 10:25:00;;;;;;;7.53;6.93;;;;;;;20.13;100.00;96827.94;5088643;28;20449;-48
2022/07/07 10:27:30;;;;;;;;;;;;;;;20.08;100.00;96833.88;5089603;28;20075;-47
2022/07/07 10:29:59;;;;;;;8.55;6.25;;;;;;;20.79;100.00;96828.34;5088680;28;19955;-47
2022/07/07 10:32:33;;;;;;;9.38;8.68;;;;;;;20.87;100.00;96830.03;5088775;28;20063;-47
2022/07/07 10:35:07;;;;;;;8.48;7.50;;;;;;;21.26;100.00;96820.44;5082585;28;20522;-50
2022/07/07 10:37:44;;;;;;;6.35;5.75;;;;;;;21.31;100.00;96815.31;5089192;28;20665;-48
2022/07/07 10:40:25;;;;;;;9.45;8.75;;;;;;;21.46;100.00;96820.53;5088980;28;20078;-47
2022/07/07 10:43:06;;;;;;;8.45;7.65;;;;;;;22.15;100.00;96812.06;5088576;28;20076;-49
2022/07/07 10:45:35;;;;;;;11.30;10.40;;;;;;;21.72;100.00;96817.88;5085462;28;20079;-47
2022/07/07 10:48:07;;;;;;;9.57;8.73;;;;;;;21.37;100.00;96814.53;5088436;28;20080;-46
2022/07/07 10:50:35;;;;;;;8.85;8.05;;;;;;;21.63;100.00;96812.91;5088744;28;20071;-50
2022/07/07 10:53:04;;;;;;;8.57;7.85;;;;;;;21.40;100.00;96807.91;5088692;28;20076;-46
2022/07/07 10:55:52;;;;;;;7.18;6.68;;;;;;;20.84;100.00;96823.22;5091001;28;20502;-50
2022/07/07 10:58:56;;;;;;;9.85;9.13;;;;;;;20.20;100.00;96828.00;5092588;28;20071;-50
2022/07/07 11:01:26;;;;;;;9.90;9.10;;;;;;;19.71;100.00;96810.94;5083108;28;20079;-46
2022/07/07 11:03:55;;;;;;;9.23;8.45;;;;;;;19.60;100.00;96819.47;5088867;28;20060;-48
2022/07/07 11:06:24;;;;;;;8.93;8.32;;;;;;;20.03;100.00;96822.13;5087258;28;20408;-46
2022/07/07 11:09:01;;;;;;;7.55;6.93;;;;;;;20.04;100.00;96823.78;5088224;28;20530;-47
2022/07/07 11:11:30;;;;;;;7.85;7.30;;;;;;;20.62;100.00;96822.50;5088384;28;20083;-50
2022/07/07 11:14:09;;;;;;;8.65;7.95;;;;;;;20.70;100.00;96826.03;5087573;28;20074;-49
2022/07/07 11:16:39;;;;;;;9.32;8.60;;;;;;;21.20;100.00;96826.66;5087862;28;20074;-46
2022/07/07 11:19:09;;;;;;;;;;;;;;;21.07;100.00;96822.88;5090269;28;20071;-48
2022/07/07 11:21:42;;;;;;;7.43;6.93;;;;;;;21.09;100.00;96826.19;5091874;28;19951;-46
2022/07/07 11:24:18;;;;;;;7.18;6.50;;;;;;;21.18;100.00;96820.66;5087296;28;20080;-48
2022/07/07 11:27:01;;;;;;;8.27;7.68;;;;;;;21.22;100.00;96825.38;5091320;28;20067;-46
2022/07/07 11:29:32;;;;;;;9.43;8.82;;;;;;;21.48;100.00;96813.09;5091248;28;20071;-47
2022/07/07 11:32:05;;;;;;;12.60;11.80;;;;;;;21.26;100.00;96809.72;5092076;28;20072;-47
2022/07/07 11:34:44;;;;;;;11.20;10.32;;;;;;;20.71;100.00;96819.66;5089696;28;20475;-45
2022/07/07 11:37:21;;;;;;;9.30;8.35;;;;;;;20.65;100.00;96820.44;5092072;28;20071;-45
2022/07/07 11:39:49;;;;;;;7.47;6.78;;;;;;;20.78;100.00;96821.31;5091202;28;20080;-47
2022/07/07 11:42:18;;;;;;;7.13;6.53;;;;;;;20.62;100.00;96819.81;5078681;28;20100;-46